createdAt,value
2023-04-02T00:03:03.834Z,83.99
2023-04-02T00:07:30.799Z,84.55
2023-04-02T00:11:38.200Z,84.66
2023-04-02T00:15:42.737Z,84.78
2023-04-02T00:19:51.185Z,85.01
2023-04-02T00:23:55.716Z,84.87
2023-04-02T00:27:59.817Z,85.11
2023-04-02T00:32:03.012Z,85.44
2023-04-02T00:36:08.088Z,85.38
2023-04-02T00:40:19.978Z,85.33
2023-04-02T00:44:24.027Z,85.49
2023-04-02T00:48:40.896Z,85.96
2023-04-02T00:52:46.883Z,85.48
2023-04-02T00:56:53.568Z,86.17
2023-04-02T01:00:59.280Z,85.97
2023-04-02T01:05:04.090Z,86.17
2023-04-02T01:09:36.416Z,86.46
2023-04-02T01:13:45.106Z,86.34
2023-04-02T01:18:07.231Z,86.23
2023-04-02T01:22:18.298Z,86.28
2023-04-02T01:26:33.154Z,86.51
2023-04-02T01:30:38.257Z,86.71
2023-04-02T01:34:44.695Z,87.08
2023-04-02T01:38:51.876Z,87.09
2023-04-02T01:43:01.981Z,86.35
2023-04-02T01:47:11.869Z,86.63
2023-04-02T01:51:28.292Z,86.66
2023-04-02T01:55:35.138Z,86.65
2023-04-02T01:59:39.471Z,86.60
2023-04-02T02:03:45.259Z,86.91
2023-04-02T02:07:48.319Z,86.77
2023-04-02T02:11:52.101Z,86.90
2023-04-02T02:15:59.000Z,86.92
2023-04-02T02:20:10.951Z,86.57
2023-04-02T02:24:20.799Z,86.67
2023-04-02T02:28:27.615Z,86.59
2023-04-02T02:32:32.771Z,86.26
2023-04-02T02:36:46.514Z,86.63
2023-04-02T02:40:52.033Z,86.10
2023-04-02T02:44:57.420Z,86.72
2023-04-02T02:49:04.311Z,86.37
2023-04-02T02:53:17.760Z,86.60
2023-04-02T02:57:24.345Z,86.81
2023-04-02T03:01:30.008Z,86.51
2023-04-02T03:05:33.103Z,86.45
2023-04-02T03:09:47.093Z,86.39
2023-04-02T03:13:54.675Z,86.70
2023-04-02T03:18:01.850Z,86.75
2023-04-02T03:22:12.548Z,87.31
2023-04-02T03:26:20.945Z,87.16
2023-04-02T03:30:31.438Z,87.42
2023-04-02T03:34:38.171Z,87.78
2023-04-02T03:38:45.536Z,87.43
2023-04-02T03:42:53.959Z,87.15
2023-04-02T03:47:02.375Z,87.97
2023-04-02T03:51:11.395Z,88.25
2023-04-02T03:55:18.848Z,89.05
2023-04-02T03:59:32.962Z,88.97
2023-04-02T04:03:41.861Z,89.58
2023-04-02T04:07:45.555Z,89.27
2023-04-02T04:11:54.115Z,89.43
2023-04-02T04:16:04.223Z,89.84
2023-04-02T04:20:21.918Z,89.84
2023-04-02T04:24:26.549Z,89.91
2023-04-02T04:28:38.226Z,90.47
2023-04-02T04:32:50.295Z,90.82
2023-04-02T04:36:56.897Z,91.35
2023-04-02T04:41:04.409Z,91.86
2023-04-02T04:45:14.712Z,92.01
2023-04-02T04:49:21.559Z,92.89
2023-04-02T04:53:27.072Z,92.94
2023-04-02T04:57:33.494Z,93.08
2023-04-02T05:01:40.006Z,93.65
2023-04-02T05:05:45.490Z,93.77
2023-04-02T05:09:56.743Z,93.96
2023-04-02T05:14:03.017Z,94.35
2023-04-02T05:18:18.803Z,94.71
2023-04-02T05:22:29.859Z,94.50
2023-04-02T05:26:38.460Z,94.84
2023-04-02T05:30:49.413Z,94.94
2023-04-02T05:34:55.470Z,95.40
2023-04-02T05:39:00.540Z,95.02
2023-04-02T05:43:08.364Z,95.50
2023-04-02T05:47:15.715Z,95.52
2023-04-02T05:51:23.085Z,95.17
2023-04-02T05:55:35.890Z,95.50
2023-04-02T05:59:44.554Z,95.30
2023-04-02T06:03:54.211Z,95.54
2023-04-02T06:08:00.499Z,95.14
2023-04-02T06:12:13.326Z,95.47
2023-04-02T06:16:17.474Z,95.44
2023-04-02T06:20:21.820Z,95.24
2023-04-02T06:24:27.673Z,95.32
2023-04-02T06:28:37.690Z,95.29
2023-04-02T06:32:40.482Z,95.61
2023-04-02T06:36:43.892Z,95.56
2023-04-02T06:40:51.880Z,96.19
2023-04-02T06:44:56.247Z,95.52
2023-04-02T06:49:05.519Z,95.14
2023-04-02T06:53:18.769Z,94.55
2023-04-02T06:57:21.825Z,94.64
2023-04-02T07:01:30.039Z,94.53
2023-04-02T07:05:32.930Z,94.54
2023-04-02T07:09:35.844Z,95.05
2023-04-02T07:13:38.488Z,95.15
2023-04-02T07:17:42.518Z,95.51
2023-04-02T07:21:45.455Z,94.85
2023-04-02T07:25:48.410Z,95.12
2023-04-02T07:29:51.048Z,94.70
2023-04-02T07:33:57.850Z,94.78
2023-04-02T07:38:00.484Z,94.69
2023-04-02T07:42:03.709Z,94.44
2023-04-02T07:46:07.144Z,94.32
2023-04-02T07:50:11.982Z,94.53
2023-04-02T07:54:14.759Z,94.44
2023-04-02T07:58:19.643Z,94.26
2023-04-02T08:02:22.909Z,94.06
2023-04-02T08:06:27.746Z,94.15
2023-04-02T08:10:30.900Z,93.66
2023-04-02T08:14:33.662Z,93.30
2023-04-02T08:18:36.876Z,93.01
2023-04-02T08:22:40.991Z,91.86
2023-04-02T08:26:45.411Z,91.46
2023-04-02T08:30:49.117Z,91.08
2023-04-02T08:34:54.569Z,90.79
2023-04-02T08:38:58.640Z,91.48
2023-04-02T08:43:23.776Z,91.08
2023-04-02T08:47:27.113Z,91.16
2023-04-02T08:51:33.603Z,91.40
2023-04-02T08:55:42.917Z,91.26
2023-04-02T08:59:47.965Z,90.81
2023-04-02T09:03:52.985Z,90.92
2023-04-02T09:07:59.290Z,90.28
2023-04-02T09:12:06.866Z,89.53
2023-04-02T09:16:18.174Z,90.50
2023-04-02T09:20:29.377Z,90.47
2023-04-02T09:24:32.075Z,90.50
2023-04-02T09:28:36.321Z,89.24
2023-04-02T09:32:48.937Z,88.22
2023-04-02T09:36:52.051Z,88.56
2023-04-02T09:41:00.709Z,88.63
2023-04-02T09:45:16.654Z,87.77
2023-04-02T09:49:24.708Z,88.72
2023-04-02T09:53:31.882Z,89.25
2023-04-02T09:57:34.618Z,89.69
2023-04-02T10:01:42.820Z,89.83
2023-04-02T10:05:52.543Z,89.78
2023-04-02T10:09:59.901Z,89.47
2023-04-02T10:14:09.769Z,89.32
2023-04-02T10:18:21.386Z,87.67
2023-04-02T10:22:28.666Z,89.33
2023-04-02T10:26:43.762Z,88.03
2023-04-02T10:30:56.853Z,88.09
2023-04-02T10:35:08.851Z,87.99
2023-04-02T10:39:17.067Z,86.99
2023-04-02T10:43:54.028Z,87.11
2023-04-02T10:48:06.352Z,87.10
2023-04-02T10:52:14.197Z,87.63
2023-04-02T10:56:17.538Z,88.24
2023-04-02T11:00:25.618Z,88.69
2023-04-02T11:04:32.128Z,88.80
2023-04-02T11:08:42.775Z,87.73
2023-04-02T11:12:54.740Z,87.77
2023-04-02T11:17:00.517Z,86.93
2023-04-02T11:21:06.388Z,87.68
2023-04-02T11:25:23.164Z,87.11
2023-04-02T11:29:28.059Z,87.91
2023-04-02T11:33:44.752Z,86.63
2023-04-02T11:37:48.419Z,87.16
2023-04-02T11:42:06.889Z,87.32
2023-04-02T11:46:48.647Z,87.40
2023-04-02T11:50:51.442Z,86.64
2023-04-02T11:55:24.339Z,86.02
2023-04-02T11:59:39.312Z,85.78
2023-04-02T12:04:26.617Z,84.76
2023-04-02T12:08:50.850Z,82.09
2023-04-02T12:13:00.390Z,82.95
2023-04-02T12:17:08.474Z,80.65
2023-04-02T12:21:17.169Z,80.74
2023-04-02T12:25:26.941Z,80.81
2023-04-02T12:29:30.539Z,79.28
2023-04-02T12:33:38.119Z,80.53
2023-04-02T12:37:40.895Z,81.38
2023-04-02T12:41:43.592Z,79.92
2023-04-02T12:45:53.301Z,77.89
2023-04-02T12:49:59.154Z,78.52
2023-04-02T12:54:02.090Z,79.91
2023-04-02T12:58:04.743Z,78.12
2023-04-02T13:02:19.732Z,77.57
2023-04-02T13:06:26.514Z,78.09
2023-04-02T13:10:29.788Z,75.97
2023-04-02T13:14:32.715Z,76.48
2023-04-02T13:18:37.760Z,76.65
2023-04-02T13:22:41.775Z,76.71
2023-04-02T13:26:44.462Z,77.00
2023-04-02T13:30:47.213Z,77.58
2023-04-02T13:34:49.904Z,78.04
2023-04-02T13:38:53.895Z,78.00
2023-04-02T13:42:56.625Z,77.93
2023-04-02T13:47:00.568Z,76.92
2023-04-02T13:51:03.225Z,76.67
2023-04-02T13:55:08.907Z,77.72
2023-04-02T13:59:12.203Z,78.17
2023-04-02T14:03:18.900Z,78.51
2023-04-02T14:07:29.946Z,78.58
2023-04-02T14:11:47.678Z,78.99
2023-04-02T14:16:04.072Z,80.62
2023-04-02T14:20:21.739Z,80.74
2023-04-02T14:24:32.872Z,80.43
2023-04-02T14:28:45.975Z,80.27
2023-04-02T14:32:59.081Z,81.07
2023-04-02T14:37:13.809Z,83.37
2023-04-02T14:41:22.203Z,82.87
2023-04-02T14:45:43.589Z,84.35
2023-04-02T14:49:49.657Z,84.68
2023-04-02T14:54:00.077Z,85.23
2023-04-02T14:58:07.080Z,84.55
2023-04-02T15:02:19.782Z,82.58
2023-04-02T15:06:27.422Z,81.14
2023-04-02T15:10:32.604Z,80.40
2023-04-02T15:14:39.810Z,80.48
2023-04-02T15:18:43.898Z,80.11
2023-04-02T15:23:05.790Z,79.70
2023-04-02T15:27:25.572Z,80.58
2023-04-02T15:31:29.654Z,80.47
2023-04-02T15:35:45.987Z,79.87
2023-04-02T15:40:17.529Z,78.31
2023-04-02T15:44:20.016Z,79.53
2023-04-02T15:48:50.441Z,78.81
2023-04-02T15:52:59.985Z,77.93
2023-04-02T15:57:17.820Z,76.08
2023-04-02T16:01:31.785Z,76.11
2023-04-02T16:05:41.353Z,75.27
2023-04-02T16:09:53.915Z,75.17
2023-04-02T16:14:05.903Z,75.80
2023-04-02T16:18:12.995Z,76.13
2023-04-02T16:22:21.167Z,76.59
2023-04-02T16:26:57.305Z,75.37
2023-04-02T16:31:07.072Z,74.37
2023-04-02T16:35:41.714Z,74.40
2023-04-02T16:39:53.955Z,74.32
2023-04-02T16:44:09.490Z,73.85
2023-04-02T16:48:18.183Z,74.35
2023-04-02T16:52:39.420Z,75.47
2023-04-02T16:56:55.896Z,73.42
2023-04-02T17:01:04.221Z,73.78
2023-04-02T17:05:18.381Z,74.57
2023-04-02T17:09:28.061Z,73.15
2023-04-02T17:13:39.470Z,72.95
2023-04-02T17:17:44.810Z,73.26
2023-04-02T17:21:50.270Z,72.49
2023-04-02T17:25:59.569Z,72.36
2023-04-02T17:30:06.233Z,72.12
2023-04-02T17:34:14.676Z,71.44
2023-04-02T17:38:23.857Z,71.51
2023-04-02T17:42:40.258Z,72.09
2023-04-02T17:46:52.342Z,71.76
2023-04-02T17:51:05.943Z,72.62
2023-04-02T17:55:17.315Z,72.21
2023-04-02T17:59:35.288Z,72.70
2023-04-02T18:03:52.077Z,72.55
2023-04-02T18:08:08.608Z,72.31
2023-04-02T18:12:23.091Z,73.11
2023-04-02T18:16:41.661Z,73.88
2023-04-02T18:20:54.565Z,74.50
2023-04-02T18:25:33.716Z,74.80
2023-04-02T18:29:45.498Z,73.94
2023-04-02T18:34:09.047Z,74.24
2023-04-02T18:38:24.731Z,74.29
2023-04-02T18:42:46.603Z,74.86
2023-04-02T18:46:53.446Z,73.76
2023-04-02T18:50:56.080Z,73.93
2023-04-02T18:55:05.580Z,73.95
2023-04-02T18:59:26.541Z,74.23
2023-04-02T19:03:34.246Z,72.85
2023-04-02T19:07:41.710Z,72.84
2023-04-02T19:11:44.350Z,72.47
2023-04-02T19:16:04.434Z,73.38
2023-04-02T19:20:22.542Z,74.73
2023-04-02T19:24:39.691Z,75.41
2023-04-02T19:28:47.886Z,75.21
2023-04-02T19:33:01.917Z,75.02
2023-04-02T19:37:12.602Z,75.50
2023-04-02T19:41:27.314Z,75.62
2023-04-02T19:45:34.816Z,74.75
2023-04-02T19:49:39.086Z,75.49
2023-04-02T19:53:42.052Z,75.20
2023-04-02T19:57:44.758Z,74.92
2023-04-02T20:01:47.971Z,74.76
2023-04-02T20:05:52.577Z,74.19
2023-04-02T20:09:55.233Z,74.59
2023-04-02T20:13:57.988Z,73.72
2023-04-02T20:18:00.842Z,74.32
2023-04-02T20:22:05.029Z,74.90
2023-04-02T20:26:08.248Z,74.15
2023-04-02T20:30:11.657Z,73.88
2023-04-02T20:34:14.860Z,73.88
2023-04-02T20:38:19.561Z,72.82
2023-04-02T20:42:22.360Z,73.63
2023-04-02T20:46:25.539Z,73.41
2023-04-02T20:50:28.346Z,73.58
2023-04-02T20:54:32.549Z,73.95
2023-04-02T20:58:35.941Z,74.19
2023-04-02T21:02:38.724Z,74.76
2023-04-02T21:06:42.330Z,73.81
2023-04-02T21:10:46.457Z,73.53
2023-04-02T21:14:49.188Z,72.62
2023-04-02T21:18:53.978Z,71.89
2023-04-02T21:22:56.707Z,71.11
2023-04-02T21:27:00.984Z,69.99
2023-04-02T21:31:05.379Z,69.82
2023-04-02T21:35:09.806Z,70.88
2023-04-02T21:39:17.659Z,70.76
2023-04-02T21:43:21.787Z,70.65
2023-04-02T21:47:24.919Z,71.08
2023-04-02T21:51:29.059Z,70.33
2023-04-02T21:55:32.316Z,70.01
2023-04-02T21:59:36.456Z,69.98
2023-04-02T22:03:39.366Z,71.07
2023-04-02T22:07:42.163Z,70.71
2023-04-02T22:11:47.008Z,71.06
2023-04-02T22:15:51.069Z,70.97
2023-04-02T22:19:53.817Z,70.88
2023-04-02T22:23:57.446Z,71.37
2023-04-02T22:28:00.214Z,70.44
2023-04-02T22:32:04.273Z,70.90
2023-04-02T22:36:07.780Z,72.24
2023-04-02T22:40:11.419Z,71.51
2023-04-02T22:44:15.281Z,71.59
2023-04-02T22:48:19.324Z,71.21
2023-04-02T22:52:22.118Z,71.59
2023-04-02T22:56:27.649Z,71.95
2023-04-02T23:00:30.964Z,72.37
2023-04-02T23:04:35.533Z,72.40
2023-04-02T23:08:39.048Z,72.60
2023-04-02T23:12:41.876Z,73.13
2023-04-02T23:16:44.595Z,73.64
2023-04-02T23:20:48.786Z,72.48
2023-04-02T23:24:54.585Z,72.62
2023-04-02T23:28:58.584Z,72.90
2023-04-02T23:33:03.513Z,73.15
2023-04-02T23:37:08.783Z,73.00
2023-04-02T23:41:15.137Z,73.11
2023-04-02T23:45:18.024Z,71.97
2023-04-02T23:49:21.422Z,73.34
2023-04-02T23:53:25.783Z,74.20
2023-04-02T23:57:29.265Z,73.57
